AirNav   Pilot Hours Calculator
 
 1587 users online  

MI57 Eagle Heliport
Romeo, Michigan, USA

GOING TO ROMEO?


FAA INFORMATION EFFECTIVE 15 JULY 2021

Location

FAA Identifier: MI57
Lat/Long: 42-47-35.0000N 083-01-34.0000W
42-47.583333N 083-01.566667W
42.7930556,-83.0261111
(estimated)
Elevation: 605 ft. / 184 m (estimated)
From city: 1 mile SW of ROMEO, MI
Time zone: UTC -4 (UTC -5 during Standard Time)
Zip code: 48095

Heliport Operations

Heliport use: Private use. Permission required prior to landing
Activation date: 09/2004
Control tower: no
ARTCC: CLEVELAND CENTER
FSS: LANSING FLIGHT SERVICE STATION
Attendance: UNATNDD
Segmented circle: no

Heliport Communications

WX AWOS-3 at VLL (16 nm SW): 119.475 (248-288-4649)
WX ASOS at PTK (19 nm SW): 125.025 (248-886-8551)
WX AWOS-3P at D95 (20 nm NW): 134.050 (810-664-5038)

Nearby radio navigation aids

VOR radial/distance  VOR name  Freq  Var
FNTr114/33.4FLINT VORTAC116.9006W
SVMr050/34.1SALEM VORTAC114.3003W
DXOr029/37.9DETROIT VOR/DME113.4006W

Heliport Services

Runway Information

Helipad H1

Dimensions: 16 x 16 ft. / 5 x 5 m
Surface: concrete
Traffic pattern: leftleft

Heliport Ownership and Management from official FAA records

Ownership: Privately-owned
Owner: WILLIAM ZICHICHI
67400 ROSE DRIVE
WASHINGTON, MI 48095
Phone 586-336-0854
Manager: WILLIAM ZICHICHI
67400 ROSE DRIVE
WASHINGTON, MI 48095
Phone 586-336-0854

Additional Remarks

FOR CD CTC CLEVELAND ARTCC AT 440-774-0490.

Instrument Procedures

There are no published instrument procedures at MI57.

Some nearby airports with instrument procedures:

D98 - Romeo State Airport (2 nm E)
57D - Ray Community Airport (7 nm SE)
KMTC - Selfridge Air National Guard Base (14 nm SE)
KVLL - Oakland/Troy Airport (16 nm SW)
KPTK - Oakland County International Airport (19 nm SW)
D95 - Dupont-Lapeer Airport (20 nm NW)
 
Loc | Ops | Rwys | IFR | FBO | Links
Com | Nav | Svcs | Stats | Notes
Area around MI57 (Eagle Heliport)
 
Road maps at: MapQuest Bing Google
 
Aerial photo
No photo
 
Sectional chart

 
Airport distance calculator
Flying to Eagle Heliport? Find the distance to fly.

From to MI57

Sunrise and sunset
Times for 26-Jul-2021
 Local
(UTC-4)
 Zulu
(UTC)
Morning civil twilight05:4609:46
Sunrise06:1810:18
Sunset20:5900:59
Evening civil twilight21:3201:32

Current date and time
Zulu (UTC)  26-Jul-2021 19:15:28
Local (UTC-4)  26-Jul-2021 15:15:28
 
METAR
KMTC 
14nm SE 
261856Z 31006G16KT 10SM FEW060 31/14 A2998 RMK AO2A SLP153 T03120139
KVLL 
16nm SW 
261855Z AUTO 28011KT 10SM CLR 32/11 A3002 RMK AO2 T03200113
KPTK 
19nm SW 
261853Z 32010G19KT 10SM FEW060 FEW250 30/13 A2999 RMK AO2 SLP149 T03000128
KD95 
20nm NW 
261855Z AUTO 29007KT 10SM CLR 30/13 A3000 RMK AO2 T02990130
KDET 
24nm S 
261853Z 34009G19KT 10SM FEW080 33/12 A2999 RMK AO2 SLP148 T03280117
KPHN 
24nm E 
261855Z AUTO 28006KT 10SM CLR 30/11 A2998 RMK AO2
TAF
KMTC 
14nm SE 
261700Z 2617/2723 30010G15KT 9999 SKC QNH2996INS BECMG 2623/2624 VRB06KT 9999 SKC QNH2996INS BECMG 2711/2712 VRB06KT 9999 FEW110 BKN120 QNH2996INS BECMG 2716/2717 27010G15KT 9999 FEW095 BKN130 OVC180 510052 QNH2992INS TX30/2620Z TN20/2709Z
KPTK 
19nm SW 
261130Z 2612/2712 30003KT P6SM SKC FM261600 30008KT P6SM FEW070 FM270000 20003KT P6SM SKC FM270600 VRB03KT P6SM SCT100
NOTAMs
Click for the latest NOTAMs
NOTAMs are issued by the DoD/FAA and will open in a separate window not controlled by AirNav.

 

 
 

Would you like to see your business listed on this page?

 If your business provides an interesting product or service to pilots, flight crews, aircraft, or users of the Eagle Heliport, you should consider listing it here.  To start the listing process, click on the button below
 
Add a business
 

Other Pages about Eagle Heliport

Update a link
 
Copyright © AirNav, LLC. All rights reserved. Privacy Policy  Contact